sensor_id;sensor_type;location;lat;lon;timestamp;temperature;humidity
51661;DHT22;37741;49.748;8.490;2024-02-04T00:00:15;9.10;90.10
51661;DHT22;37741;49.748;8.490;2024-02-04T00:02:40;9.10;90.10
51661;DHT22;37741;49.748;8.490;2024-02-04T00:05:06;9.10;90.20
51661;DHT22;37741;49.748;8.490;2024-02-04T00:07:32;9.10;90.10
51661;DHT22;37741;49.748;8.490;2024-02-04T00:09:58;9.10;90.10
51661;DHT22;37741;49.748;8.490;2024-02-04T00:12:23;9.10;90.10
51661;DHT22;37741;49.748;8.490;2024-02-04T00:14:49;9.10;90.20
51661;DHT22;37741;49.748;8.490;2024-02-04T00:17:16;9.10;90.20
51661;DHT22;37741;49.748;8.490;2024-02-04T00:19:41;9.10;90.20
51661;DHT22;37741;49.748;8.490;2024-02-04T00:22:07;9.10;90.30
51661;DHT22;37741;49.748;8.490;2024-02-04T00:24:33;9.10;90.30
51661;DHT22;37741;49.748;8.490;2024-02-04T00:26:58;9.10;90.30
51661;DHT22;37741;49.748;8.490;2024-02-04T00:29:24;9.10;90.20
51661;DHT22;37741;49.748;8.490;2024-02-04T00:31:50;9.10;90.20
51661;DHT22;37741;49.748;8.490;2024-02-04T00:34:15;9.10;90.30
51661;DHT22;37741;49.748;8.490;2024-02-04T00:36:41;9.10;90.40
51661;DHT22;37741;49.748;8.490;2024-02-04T00:39:07;9.10;90.30
51661;DHT22;37741;49.748;8.490;2024-02-04T00:41:33;9.10;90.40
51661;DHT22;37741;49.748;8.490;2024-02-04T00:43:59;9.10;90.40
51661;DHT22;37741;49.748;8.490;2024-02-04T00:46:25;9.10;90.50
51661;DHT22;37741;49.748;8.490;2024-02-04T00:48:50;9.10;90.50
51661;DHT22;37741;49.748;8.490;2024-02-04T00:51:16;9.10;90.40
51661;DHT22;37741;49.748;8.490;2024-02-04T00:53:45;9.10;90.50
51661;DHT22;37741;49.748;8.490;2024-02-04T00:56:11;9.10;90.40
51661;DHT22;37741;49.748;8.490;2024-02-04T00:58:38;9.10;90.40
51661;DHT22;37741;49.748;8.490;2024-02-04T01:01:04;9.10;90.40
51661;DHT22;37741;49.748;8.490;2024-02-04T01:03:31;9.00;90.40
51661;DHT22;37741;49.748;8.490;2024-02-04T01:05:56;9.10;90.70
51661;DHT22;37741;49.748;8.490;2024-02-04T01:08:22;9.10;90.40
51661;DHT22;37741;49.748;8.490;2024-02-04T01:10:48;9.10;90.50
51661;DHT22;37741;49.748;8.490;2024-02-04T01:13:16;9.10;90.50
51661;DHT22;37741;49.748;8.490;2024-02-04T01:15:42;9.10;90.60
51661;DHT22;37741;49.748;8.490;2024-02-04T01:18:08;9.10;90.90
51661;DHT22;37741;49.748;8.490;2024-02-04T01:20:33;9.10;90.60
51661;DHT22;37741;49.748;8.490;2024-02-04T01:22:59;9.10;90.60
51661;DHT22;37741;49.748;8.490;2024-02-04T01:25:24;9.10;90.70
51661;DHT22;37741;49.748;8.490;2024-02-04T01:27:50;9.10;90.60
51661;DHT22;37741;49.748;8.490;2024-02-04T01:30:16;9.00;90.70
51661;DHT22;37741;49.748;8.490;2024-02-04T01:32:41;9.10;90.70
51661;DHT22;37741;49.748;8.490;2024-02-04T01:35:07;9.10;90.70
51661;DHT22;37741;49.748;8.490;2024-02-04T01:37:33;9.10;90.70
51661;DHT22;37741;49.748;8.490;2024-02-04T01:39:59;9.00;90.60
51661;DHT22;37741;49.748;8.490;2024-02-04T01:42:24;9.10;90.80
51661;DHT22;37741;49.748;8.490;2024-02-04T01:44:50;9.00;90.60
51661;DHT22;37741;49.748;8.490;2024-02-04T01:47:16;9.10;90.60
51661;DHT22;37741;49.748;8.490;2024-02-04T01:49:43;9.10;90.70
51661;DHT22;37741;49.748;8.490;2024-02-04T01:52:09;9.10;90.80
51661;DHT22;37741;49.748;8.490;2024-02-04T01:54:37;9.00;90.80
51661;DHT22;37741;49.748;8.490;2024-02-04T01:57:06;9.10;90.70
51661;DHT22;37741;49.748;8.490;2024-02-04T01:59:32;9.10;90.70
51661;DHT22;37741;49.748;8.490;2024-02-04T02:02:00;9.10;90.70
51661;DHT22;37741;49.748;8.490;2024-02-04T02:04:26;9.00;90.70
51661;DHT22;37741;49.748;8.490;2024-02-04T02:06:55;9.10;90.80
51661;DHT22;37741;49.748;8.490;2024-02-04T02:09:21;9.00;90.70
51661;DHT22;37741;49.748;8.490;2024-02-04T02:12:10;9.00;90.80
51661;DHT22;37741;49.748;8.490;2024-02-04T02:14:41;9.10;90.70
51661;DHT22;37741;49.748;8.490;2024-02-04T02:17:10;9.10;90.80
51661;DHT22;37741;49.748;8.490;2024-02-04T02:25:07;9.10;90.80
51661;DHT22;37741;49.748;8.490;2024-02-04T02:27:58;9.10;90.90
51661;DHT22;37741;49.748;8.490;2024-02-04T02:30:24;9.10;90.90
51661;DHT22;37741;49.748;8.490;2024-02-04T02:32:50;9.10;90.80
51661;DHT22;37741;49.748;8.490;2024-02-04T02:35:16;9.10;90.90
51661;DHT22;37741;49.748;8.490;2024-02-04T02:38:11;9.00;90.90
51661;DHT22;37741;49.748;8.490;2024-02-04T02:40:54;9.00;91.00
51661;DHT22;37741;49.748;8.490;2024-02-04T02:43:23;9.00;91.00
51661;DHT22;37741;49.748;8.490;2024-02-04T02:45:49;9.00;91.00
51661;DHT22;37741;49.748;8.490;2024-02-04T02:48:16;9.00;91.10
51661;DHT22;37741;49.748;8.490;2024-02-04T02:50:42;9.00;91.10
51661;DHT22;37741;49.748;8.490;2024-02-04T02:53:07;9.00;91.10
51661;DHT22;37741;49.748;8.490;2024-02-04T02:55:33;9.00;91.20
51661;DHT22;37741;49.748;8.490;2024-02-04T02:57:58;9.00;91.10
51661;DHT22;37741;49.748;8.490;2024-02-04T03:00:24;9.00;91.30
51661;DHT22;37741;49.748;8.490;2024-02-04T03:02:49;9.00;91.20
51661;DHT22;37741;49.748;8.490;2024-02-04T03:05:15;9.00;91.10
51661;DHT22;37741;49.748;8.490;2024-02-04T03:07:41;9.00;91.20
51661;DHT22;37741;49.748;8.490;2024-02-04T03:10:08;9.00;91.20
51661;DHT22;37741;49.748;8.490;2024-02-04T03:12:34;9.00;91.20
51661;DHT22;37741;49.748;8.490;2024-02-04T03:14:59;9.00;91.40
51661;DHT22;37741;49.748;8.490;2024-02-04T03:17:25;9.00;91.40
51661;DHT22;37741;49.748;8.490;2024-02-04T03:19:51;9.00;91.30
51661;DHT22;37741;49.748;8.490;2024-02-04T03:22:23;8.90;91.40
51661;DHT22;37741;49.748;8.490;2024-02-04T03:24:49;9.00;91.30
51661;DHT22;37741;49.748;8.490;2024-02-04T03:27:18;9.00;91.30
51661;DHT22;37741;49.748;8.490;2024-02-04T03:29:43;9.00;91.40
51661;DHT22;37741;49.748;8.490;2024-02-04T03:32:10;9.00;91.30
51661;DHT22;37741;49.748;8.490;2024-02-04T03:34:36;8.90;91.30
51661;DHT22;37741;49.748;8.490;2024-02-04T03:37:02;8.90;91.40
51661;DHT22;37741;49.748;8.490;2024-02-04T03:39:28;8.90;91.30
51661;DHT22;37741;49.748;8.490;2024-02-04T03:41:53;9.00;91.30
51661;DHT22;37741;49.748;8.490;2024-02-04T03:44:19;9.00;91.40
51661;DHT22;37741;49.748;8.490;2024-02-04T03:46:48;8.90;91.40
51661;DHT22;37741;49.748;8.490;2024-02-04T03:49:14;8.90;91.30
51661;DHT22;37741;49.748;8.490;2024-02-04T03:51:40;8.90;91.30
51661;DHT22;37741;49.748;8.490;2024-02-04T03:54:05;8.90;91.30
51661;DHT22;37741;49.748;8.490;2024-02-04T03:56:31;8.90;91.40
51661;DHT22;37741;49.748;8.490;2024-02-04T03:58:56;8.90;91.40
51661;DHT22;37741;49.748;8.490;2024-02-04T04:01:22;8.90;91.40
51661;DHT22;37741;49.748;8.490;2024-02-04T04:03:48;8.90;91.40
51661;DHT22;37741;49.748;8.490;2024-02-04T04:06:13;8.90;91.50
51661;DHT22;37741;49.748;8.490;2024-02-04T04:08:39;8.90;91.50
51661;DHT22;37741;49.748;8.490;2024-02-04T04:11:06;8.90;91.50
51661;DHT22;37741;49.748;8.490;2024-02-04T04:13:32;8.90;91.40
51661;DHT22;37741;49.748;8.490;2024-02-04T04:16:00;8.90;91.40
51661;DHT22;37741;49.748;8.490;2024-02-04T04:18:25;8.90;91.40
51661;DHT22;37741;49.748;8.490;2024-02-04T04:20:51;8.90;91.50
51661;DHT22;37741;49.748;8.490;2024-02-04T04:23:17;8.80;91.40
51661;DHT22;37741;49.748;8.490;2024-02-04T04:25:42;8.90;91.50
51661;DHT22;37741;49.748;8.490;2024-02-04T04:28:08;8.90;91.50
51661;DHT22;37741;49.748;8.490;2024-02-04T04:30:33;8.90;91.50
51661;DHT22;37741;49.748;8.490;2024-02-04T04:32:59;8.90;91.50
51661;DHT22;37741;49.748;8.490;2024-02-04T04:35:25;8.90;91.50
51661;DHT22;37741;49.748;8.490;2024-02-04T04:37:50;8.80;91.50
51661;DHT22;37741;49.748;8.490;2024-02-04T04:40:16;8.90;91.50
51661;DHT22;37741;49.748;8.490;2024-02-04T04:42:42;8.90;91.50
51661;DHT22;37741;49.748;8.490;2024-02-04T04:45:08;8.80;91.40
51661;DHT22;37741;49.748;8.490;2024-02-04T04:47:34;8.80;91.50
51661;DHT22;37741;49.748;8.490;2024-02-04T04:50:00;8.80;91.50
51661;DHT22;37741;49.748;8.490;2024-02-04T04:52:25;8.80;91.50
51661;DHT22;37741;49.748;8.490;2024-02-04T04:54:51;8.80;91.50
51661;DHT22;37741;49.748;8.490;2024-02-04T04:57:16;8.80;91.50
51661;DHT22;37741;49.748;8.490;2024-02-04T04:59:42;8.80;91.50
51661;DHT22;37741;49.748;8.490;2024-02-04T05:02:09;8.80;91.50
51661;DHT22;37741;49.748;8.490;2024-02-04T05:04:36;8.80;91.50
51661;DHT22;37741;49.748;8.490;2024-02-04T05:07:02;8.80;91.50
51661;DHT22;37741;49.748;8.490;2024-02-04T05:09:27;8.80;91.60
51661;DHT22;37741;49.748;8.490;2024-02-04T05:11:53;8.80;91.50
51661;DHT22;37741;49.748;8.490;2024-02-04T05:14:18;8.80;91.60
51661;DHT22;37741;49.748;8.490;2024-02-04T05:16:45;8.80;91.50
51661;DHT22;37741;49.748;8.490;2024-02-04T05:19:11;8.80;91.50
51661;DHT22;37741;49.748;8.490;2024-02-04T05:21:40;8.80;91.50
51661;DHT22;37741;49.748;8.490;2024-02-04T05:24:06;8.80;91.60
51661;DHT22;37741;49.748;8.490;2024-02-04T05:26:31;8.80;91.80
51661;DHT22;37741;49.748;8.490;2024-02-04T05:28:57;8.80;91.50
51661;DHT22;37741;49.748;8.490;2024-02-04T05:31:23;8.80;91.60
51661;DHT22;37741;49.748;8.490;2024-02-04T05:33:48;8.80;91.50
51661;DHT22;37741;49.748;8.490;2024-02-04T05:36:14;8.80;91.50
51661;DHT22;37741;49.748;8.490;2024-02-04T05:38:43;8.80;91.60
51661;DHT22;37741;49.748;8.490;2024-02-04T05:41:09;8.80;91.60
51661;DHT22;37741;49.748;8.490;2024-02-04T05:43:34;8.80;91.60
51661;DHT22;37741;49.748;8.490;2024-02-04T05:46:00;8.80;91.50
51661;DHT22;37741;49.748;8.490;2024-02-04T05:48:25;8.80;91.50
51661;DHT22;37741;49.748;8.490;2024-02-04T05:50:51;8.80;91.50
51661;DHT22;37741;49.748;8.490;2024-02-04T05:53:17;8.80;91.50
51661;DHT22;37741;49.748;8.490;2024-02-04T05:55:42;8.70;91.50
51661;DHT22;37741;49.748;8.490;2024-02-04T05:58:08;8.70;91.60
51661;DHT22;37741;49.748;8.490;2024-02-04T06:00:34;8.80;91.60
51661;DHT22;37741;49.748;8.490;2024-02-04T06:02:59;8.80;91.60
51661;DHT22;37741;49.748;8.490;2024-02-04T06:05:25;8.80;91.50
51661;DHT22;37741;49.748;8.490;2024-02-04T06:07:51;8.70;91.50
51661;DHT22;37741;49.748;8.490;2024-02-04T06:10:16;8.80;91.50
51661;DHT22;37741;49.748;8.490;2024-02-04T06:12:44;8.80;91.50
51661;DHT22;37741;49.748;8.490;2024-02-04T06:15:15;8.70;91.80
51661;DHT22;37741;49.748;8.490;2024-02-04T06:17:41;8.80;91.50
51661;DHT22;37741;49.748;8.490;2024-02-04T06:20:07;8.80;91.60
51661;DHT22;37741;49.748;8.490;2024-02-04T06:22:34;8.70;91.60
51661;DHT22;37741;49.748;8.490;2024-02-04T06:25:00;8.80;91.70
51661;DHT22;37741;49.748;8.490;2024-02-04T06:27:26;8.70;91.60
51661;DHT22;37741;49.748;8.490;2024-02-04T06:29:51;8.70;91.60
51661;DHT22;37741;49.748;8.490;2024-02-04T06:32:17;8.70;91.60
51661;DHT22;37741;49.748;8.490;2024-02-04T06:34:46;8.80;91.60
51661;DHT22;37741;49.748;8.490;2024-02-04T06:37:11;8.80;91.60
51661;DHT22;37741;49.748;8.490;2024-02-04T06:39:38;8.80;91.60
51661;DHT22;37741;49.748;8.490;2024-02-04T06:42:04;8.70;91.70
51661;DHT22;37741;49.748;8.490;2024-02-04T06:44:29;8.80;91.70
51661;DHT22;37741;49.748;8.490;2024-02-04T06:46:55;8.70;91.60
51661;DHT22;37741;49.748;8.490;2024-02-04T06:49:21;8.70;91.70
51661;DHT22;37741;49.748;8.490;2024-02-04T06:51:46;8.70;91.60
51661;DHT22;37741;49.748;8.490;2024-02-04T06:54:13;8.70;91.60
51661;DHT22;37741;49.748;8.490;2024-02-04T06:56:59;8.70;91.50
51661;DHT22;37741;49.748;8.490;2024-02-04T06:59:25;8.70;91.60
51661;DHT22;37741;49.748;8.490;2024-02-04T07:01:50;8.80;91.60
51661;DHT22;37741;49.748;8.490;2024-02-04T07:04:18;8.70;91.60
51661;DHT22;37741;49.748;8.490;2024-02-04T07:06:47;8.70;91.60
51661;DHT22;37741;49.748;8.490;2024-02-04T07:09:13;8.70;91.70
51661;DHT22;37741;49.748;8.490;2024-02-04T07:11:39;8.70;91.60
51661;DHT22;37741;49.748;8.490;2024-02-04T07:14:04;8.70;91.80
51661;DHT22;37741;49.748;8.490;2024-02-04T07:16:31;8.70;91.60
51661;DHT22;37741;49.748;8.490;2024-02-04T07:18:57;8.70;91.60
51661;DHT22;37741;49.748;8.490;2024-02-04T07:21:23;8.70;91.70
51661;DHT22;37741;49.748;8.490;2024-02-04T07:23:48;8.70;91.60
51661;DHT22;37741;49.748;8.490;2024-02-04T07:26:21;8.70;91.60
51661;DHT22;37741;49.748;8.490;2024-02-04T07:28:49;8.70;91.60
51661;DHT22;37741;49.748;8.490;2024-02-04T07:31:15;8.70;91.70
51661;DHT22;37741;49.748;8.490;2024-02-04T07:33:41;8.70;91.60
51661;DHT22;37741;49.748;8.490;2024-02-04T07:36:07;8.70;91.60
51661;DHT22;37741;49.748;8.490;2024-02-04T07:38:33;8.70;91.60
51661;DHT22;37741;49.748;8.490;2024-02-04T07:40:59;8.70;91.60
51661;DHT22;37741;49.748;8.490;2024-02-04T07:43:25;8.70;91.60
51661;DHT22;37741;49.748;8.490;2024-02-04T07:45:50;8.80;91.60
51661;DHT22;37741;49.748;8.490;2024-02-04T07:48:16;8.70;91.60
51661;DHT22;37741;49.748;8.490;2024-02-04T07:50:54;8.70;91.60
51661;DHT22;37741;49.748;8.490;2024-02-04T07:53:22;8.70;91.70
51661;DHT22;37741;49.748;8.490;2024-02-04T07:55:48;8.70;91.70
51661;DHT22;37741;49.748;8.490;2024-02-04T07:58:15;8.70;91.60
51661;DHT22;37741;49.748;8.490;2024-02-04T08:00:41;8.70;91.70
51661;DHT22;37741;49.748;8.490;2024-02-04T08:03:06;8.70;91.70
51661;DHT22;37741;49.748;8.490;2024-02-04T08:05:32;8.70;91.70
51661;DHT22;37741;49.748;8.490;2024-02-04T08:08:03;8.70;91.70
51661;DHT22;37741;49.748;8.490;2024-02-04T08:10:29;8.70;91.70
51661;DHT22;37741;49.748;8.490;2024-02-04T08:12:55;8.70;91.70
51661;DHT22;37741;49.748;8.490;2024-02-04T08:15:22;8.70;91.80
51661;DHT22;37741;49.748;8.490;2024-02-04T08:17:48;8.70;91.80
51661;DHT22;37741;49.748;8.490;2024-02-04T08:20:13;8.70;91.80
51661;DHT22;37741;49.748;8.490;2024-02-04T08:22:39;8.70;91.80
51661;DHT22;37741;49.748;8.490;2024-02-04T08:25:05;8.70;91.80
51661;DHT22;37741;49.748;8.490;2024-02-04T08:27:31;8.70;91.80
51661;DHT22;37741;49.748;8.490;2024-02-04T08:29:57;8.70;91.80
51661;DHT22;37741;49.748;8.490;2024-02-04T08:32:22;8.70;91.80
51661;DHT22;37741;49.748;8.490;2024-02-04T08:34:48;8.70;91.80
51661;DHT22;37741;49.748;8.490;2024-02-04T08:37:13;8.70;91.80
51661;DHT22;37741;49.748;8.490;2024-02-04T08:39:39;8.70;91.80
51661;DHT22;37741;49.748;8.490;2024-02-04T08:42:05;8.70;91.80
51661;DHT22;37741;49.748;8.490;2024-02-04T08:44:31;8.70;92.30
51661;DHT22;37741;49.748;8.490;2024-02-04T08:46:56;8.80;92.00
51661;DHT22;37741;49.748;8.490;2024-02-04T08:49:22;8.80;92.00
51661;DHT22;37741;49.748;8.490;2024-02-04T08:51:48;8.80;92.00
51661;DHT22;37741;49.748;8.490;2024-02-04T08:54:13;8.80;91.90
51661;DHT22;37741;49.748;8.490;2024-02-04T08:56:40;8.80;91.90
51661;DHT22;37741;49.748;8.490;2024-02-04T08:59:05;8.80;91.90
51661;DHT22;37741;49.748;8.490;2024-02-04T09:01:32;8.80;91.90
51661;DHT22;37741;49.748;8.490;2024-02-04T09:03:57;8.80;91.80
51661;DHT22;37741;49.748;8.490;2024-02-04T09:06:23;8.80;91.80
51661;DHT22;37741;49.748;8.490;2024-02-04T09:08:49;8.80;91.80
51661;DHT22;37741;49.748;8.490;2024-02-04T09:11:15;8.80;91.80
51661;DHT22;37741;49.748;8.490;2024-02-04T09:13:45;8.80;91.90
51661;DHT22;37741;49.748;8.490;2024-02-04T09:16:10;8.80;91.80
51661;DHT22;37741;49.748;8.490;2024-02-04T09:18:37;8.80;91.80
51661;DHT22;37741;49.748;8.490;2024-02-04T09:21:02;8.80;91.90
51661;DHT22;37741;49.748;8.490;2024-02-04T09:23:28;8.80;91.80
51661;DHT22;37741;49.748;8.490;2024-02-04T09:25:54;8.80;91.80
51661;DHT22;37741;49.748;8.490;2024-02-04T09:28:19;8.90;91.90
51661;DHT22;37741;49.748;8.490;2024-02-04T09:30:45;8.90;91.90
51661;DHT22;37741;49.748;8.490;2024-02-04T09:33:12;8.90;91.90
51661;DHT22;37741;49.748;8.490;2024-02-04T09:35:38;8.90;91.90
51661;DHT22;37741;49.748;8.490;2024-02-04T09:38:04;8.90;91.80
51661;DHT22;37741;49.748;8.490;2024-02-04T09:40:30;8.90;91.90
51661;DHT22;37741;49.748;8.490;2024-02-04T09:42:57;8.90;91.90
51661;DHT22;37741;49.748;8.490;2024-02-04T09:45:23;8.90;91.90
51661;DHT22;37741;49.748;8.490;2024-02-04T09:47:50;8.90;91.90
51661;DHT22;37741;49.748;8.490;2024-02-04T09:50:19;8.90;91.90
51661;DHT22;37741;49.748;8.490;2024-02-04T09:52:51;9.00;91.90
51661;DHT22;37741;49.748;8.490;2024-02-04T09:55:20;9.00;91.90
51661;DHT22;37741;49.748;8.490;2024-02-04T09:57:49;9.00;91.90
51661;DHT22;37741;49.748;8.490;2024-02-04T10:00:18;9.00;91.90
51661;DHT22;37741;49.748;8.490;2024-02-04T10:02:44;9.00;91.80
51661;DHT22;37741;49.748;8.490;2024-02-04T10:05:10;9.00;92.20
51661;DHT22;37741;49.748;8.490;2024-02-04T10:07:36;9.00;91.90
51661;DHT22;37741;49.748;8.490;2024-02-04T10:10:02;9.10;91.90
51661;DHT22;37741;49.748;8.490;2024-02-04T10:12:28;9.00;91.80
51661;DHT22;37741;49.748;8.490;2024-02-04T10:14:53;9.10;91.90
51661;DHT22;37741;49.748;8.490;2024-02-04T10:17:19;9.10;91.90
51661;DHT22;37741;49.748;8.490;2024-02-04T10:19:48;9.10;91.80
51661;DHT22;37741;49.748;8.490;2024-02-04T10:22:14;9.10;91.80
51661;DHT22;37741;49.748;8.490;2024-02-04T10:24:42;9.10;91.80
51661;DHT22;37741;49.748;8.490;2024-02-04T10:27:10;9.10;91.80
51661;DHT22;37741;49.748;8.490;2024-02-04T10:29:36;9.20;91.80
51661;DHT22;37741;49.748;8.490;2024-02-04T10:32:02;9.20;91.80
51661;DHT22;37741;49.748;8.490;2024-02-04T10:34:28;9.20;91.80
51661;DHT22;37741;49.748;8.490;2024-02-04T10:36:57;9.20;91.80
51661;DHT22;37741;49.748;8.490;2024-02-04T10:39:22;9.20;91.70
51661;DHT22;37741;49.748;8.490;2024-02-04T10:41:52;9.30;91.60
51661;DHT22;37741;49.748;8.490;2024-02-04T10:44:22;9.30;91.70
51661;DHT22;37741;49.748;8.490;2024-02-04T10:46:49;9.30;91.70
51661;DHT22;37741;49.748;8.490;2024-02-04T10:49:16;9.30;91.60
51661;DHT22;37741;49.748;8.490;2024-02-04T10:51:45;9.30;91.60
51661;DHT22;37741;49.748;8.490;2024-02-04T10:54:14;9.30;91.80
51661;DHT22;37741;49.748;8.490;2024-02-04T10:56:45;9.30;91.60
51661;DHT22;37741;49.748;8.490;2024-02-04T10:59:18;9.40;91.50
51661;DHT22;37741;49.748;8.490;2024-02-04T11:01:45;9.40;91.50
51661;DHT22;37741;49.748;8.490;2024-02-04T11:04:14;9.40;91.60
51661;DHT22;37741;49.748;8.490;2024-02-04T11:06:41;9.40;91.60
51661;DHT22;37741;49.748;8.490;2024-02-04T11:09:09;9.40;91.60
51661;DHT22;37741;49.748;8.490;2024-02-04T11:11:38;9.40;91.60
51661;DHT22;37741;49.748;8.490;2024-02-04T11:14:07;9.40;91.70
51661;DHT22;37741;49.748;8.490;2024-02-04T11:24:41;9.50;91.70
51661;DHT22;37741;49.748;8.490;2024-02-04T11:27:09;9.50;91.60
51661;DHT22;37741;49.748;8.490;2024-02-04T11:29:36;9.50;91.60
51661;DHT22;37741;49.748;8.490;2024-02-04T11:32:02;9.50;91.60
51661;DHT22;37741;49.748;8.490;2024-02-04T11:34:28;9.50;91.50
51661;DHT22;37741;49.748;8.490;2024-02-04T11:36:54;9.50;91.60
51661;DHT22;37741;49.748;8.490;2024-02-04T11:39:20;9.50;91.50
51661;DHT22;37741;49.748;8.490;2024-02-04T11:41:48;9.50;91.50
51661;DHT22;37741;49.748;8.490;2024-02-04T11:46:46;9.60;91.50
51661;DHT22;37741;49.748;8.490;2024-02-04T11:49:17;9.60;91.50
51661;DHT22;37741;49.748;8.490;2024-02-04T11:51:51;9.60;91.50
51661;DHT22;37741;49.748;8.490;2024-02-04T11:54:17;9.60;91.40
51661;DHT22;37741;49.748;8.490;2024-02-04T11:56:51;9.60;91.40
51661;DHT22;37741;49.748;8.490;2024-02-04T11:59:23;9.60;91.40
51661;DHT22;37741;49.748;8.490;2024-02-04T12:02:05;9.60;91.40
51661;DHT22;37741;49.748;8.490;2024-02-04T12:04:32;9.60;91.30
51661;DHT22;37741;49.748;8.490;2024-02-04T12:06:58;9.60;91.40
51661;DHT22;37741;49.748;8.490;2024-02-04T12:09:24;9.60;91.40
51661;DHT22;37741;49.748;8.490;2024-02-04T12:11:53;9.60;91.40
51661;DHT22;37741;49.748;8.490;2024-02-04T12:14:19;9.60;91.40
51661;DHT22;37741;49.748;8.490;2024-02-04T12:16:45;9.70;91.40
51661;DHT22;37741;49.748;8.490;2024-02-04T12:19:11;9.70;91.40
51661;DHT22;37741;49.748;8.490;2024-02-04T12:21:37;9.70;91.30
51661;DHT22;37741;49.748;8.490;2024-02-04T12:24:04;9.70;91.40
51661;DHT22;37741;49.748;8.490;2024-02-04T12:26:30;9.70;91.30
51661;DHT22;37741;49.748;8.490;2024-02-04T12:28:56;9.70;91.20
51661;DHT22;37741;49.748;8.490;2024-02-04T12:31:25;9.70;91.20
51661;DHT22;37741;49.748;8.490;2024-02-04T12:33:59;9.70;91.10
51661;DHT22;37741;49.748;8.490;2024-02-04T12:36:27;9.70;91.20
51661;DHT22;37741;49.748;8.490;2024-02-04T12:38:58;9.70;91.10
51661;DHT22;37741;49.748;8.490;2024-02-04T12:41:24;9.70;91.10
51661;DHT22;37741;49.748;8.490;2024-02-04T12:43:51;9.70;91.10
51661;DHT22;37741;49.748;8.490;2024-02-04T12:46:18;9.70;91.10
51661;DHT22;37741;49.748;8.490;2024-02-04T12:48:44;9.70;91.10
51661;DHT22;37741;49.748;8.490;2024-02-04T12:51:09;9.70;91.00
51661;DHT22;37741;49.748;8.490;2024-02-04T12:53:38;9.70;91.10
51661;DHT22;37741;49.748;8.490;2024-02-04T12:56:04;9.80;91.10
51661;DHT22;37741;49.748;8.490;2024-02-04T12:58:29;9.80;91.30
51661;DHT22;37741;49.748;8.490;2024-02-04T13:01:02;9.80;91.00
51661;DHT22;37741;49.748;8.490;2024-02-04T13:07:10;9.80;90.90
51661;DHT22;37741;49.748;8.490;2024-02-04T13:10:03;9.80;91.00
51661;DHT22;37741;49.748;8.490;2024-02-04T13:12:38;9.80;90.90
51661;DHT22;37741;49.748;8.490;2024-02-04T13:15:04;9.80;90.90
51661;DHT22;37741;49.748;8.490;2024-02-04T13:17:30;9.80;91.20
51661;DHT22;37741;49.748;8.490;2024-02-04T13:19:56;9.90;91.00
51661;DHT22;37741;49.748;8.490;2024-02-04T13:22:22;9.90;91.00
51661;DHT22;37741;49.748;8.490;2024-02-04T13:24:48;9.90;90.90
51661;DHT22;37741;49.748;8.490;2024-02-04T13:27:13;9.90;90.90
51661;DHT22;37741;49.748;8.490;2024-02-04T13:29:39;9.90;90.80
51661;DHT22;37741;49.748;8.490;2024-02-04T13:32:05;9.90;90.80
51661;DHT22;37741;49.748;8.490;2024-02-04T13:34:30;9.90;90.80
51661;DHT22;37741;49.748;8.490;2024-02-04T13:36:56;9.90;90.80
51661;DHT22;37741;49.748;8.490;2024-02-04T13:39:22;10.00;90.80
51661;DHT22;37741;49.748;8.490;2024-02-04T13:41:48;9.90;90.80
51661;DHT22;37741;49.748;8.490;2024-02-04T13:44:13;10.00;90.80
51661;DHT22;37741;49.748;8.490;2024-02-04T13:46:40;10.00;90.80
51661;DHT22;37741;49.748;8.490;2024-02-04T13:49:08;10.00;90.70
51661;DHT22;37741;49.748;8.490;2024-02-04T13:51:33;10.00;90.70
51661;DHT22;37741;49.748;8.490;2024-02-04T13:54:01;10.00;90.80
51661;DHT22;37741;49.748;8.490;2024-02-04T13:56:26;10.00;90.70
51661;DHT22;37741;49.748;8.490;2024-02-04T13:58:52;10.00;90.70
51661;DHT22;37741;49.748;8.490;2024-02-04T14:01:17;10.10;90.70
51661;DHT22;37741;49.748;8.490;2024-02-04T14:03:46;10.10;90.80
51661;DHT22;37741;49.748;8.490;2024-02-04T14:06:11;10.10;90.70
51661;DHT22;37741;49.748;8.490;2024-02-04T14:08:38;10.10;90.70
51661;DHT22;37741;49.748;8.490;2024-02-04T14:11:03;10.10;90.70
51661;DHT22;37741;49.748;8.490;2024-02-04T14:13:31;10.10;90.70
51661;DHT22;37741;49.748;8.490;2024-02-04T14:15:58;10.10;90.70
51661;DHT22;37741;49.748;8.490;2024-02-04T14:18:23;10.10;90.70
51661;DHT22;37741;49.748;8.490;2024-02-04T14:20:49;10.10;90.70
51661;DHT22;37741;49.748;8.490;2024-02-04T14:23:15;10.10;90.60
51661;DHT22;37741;49.748;8.490;2024-02-04T14:25:42;10.20;90.70
51661;DHT22;37741;49.748;8.490;2024-02-04T14:28:08;10.10;90.60
51661;DHT22;37741;49.748;8.490;2024-02-04T14:30:34;10.20;90.60
51661;DHT22;37741;49.748;8.490;2024-02-04T14:32:59;10.20;90.60
51661;DHT22;37741;49.748;8.490;2024-02-04T14:35:25;10.20;90.60
51661;DHT22;37741;49.748;8.490;2024-02-04T14:37:51;10.20;90.60
51661;DHT22;37741;49.748;8.490;2024-02-04T14:40:17;10.20;90.60
51661;DHT22;37741;49.748;8.490;2024-02-04T14:42:43;10.30;90.60
51661;DHT22;37741;49.748;8.490;2024-02-04T14:45:09;10.20;90.60
51661;DHT22;37741;49.748;8.490;2024-02-04T14:47:36;10.20;90.60
51661;DHT22;37741;49.748;8.490;2024-02-04T14:50:04;10.20;90.50
51661;DHT22;37741;49.748;8.490;2024-02-04T14:52:30;10.20;90.50
51661;DHT22;37741;49.748;8.490;2024-02-04T14:54:55;10.30;90.50
51661;DHT22;37741;49.748;8.490;2024-02-04T14:57:21;10.20;90.50
51661;DHT22;37741;49.748;8.490;2024-02-04T14:59:47;10.30;90.40
51661;DHT22;37741;49.748;8.490;2024-02-04T15:02:13;10.30;90.50
51661;DHT22;37741;49.748;8.490;2024-02-04T15:04:41;10.30;90.50
51661;DHT22;37741;49.748;8.490;2024-02-04T15:07:13;10.30;90.50
51661;DHT22;37741;49.748;8.490;2024-02-04T15:09:38;10.30;90.50
51661;DHT22;37741;49.748;8.490;2024-02-04T15:12:07;10.20;90.50
51661;DHT22;37741;49.748;8.490;2024-02-04T15:14:36;10.30;90.50
51661;DHT22;37741;49.748;8.490;2024-02-04T15:17:03;10.30;90.50
51661;DHT22;37741;49.748;8.490;2024-02-04T15:19:30;10.30;90.50
51661;DHT22;37741;49.748;8.490;2024-02-04T15:21:56;10.30;90.50
51661;DHT22;37741;49.748;8.490;2024-02-04T15:24:22;10.30;90.40
51661;DHT22;37741;49.748;8.490;2024-02-04T15:26:48;10.30;90.50
51661;DHT22;37741;49.748;8.490;2024-02-04T15:29:15;10.30;90.40
51661;DHT22;37741;49.748;8.490;2024-02-04T15:31:43;10.30;90.50
51661;DHT22;37741;49.748;8.490;2024-02-04T15:34:09;10.30;90.50
51661;DHT22;37741;49.748;8.490;2024-02-04T15:36:35;10.30;90.50
51661;DHT22;37741;49.748;8.490;2024-02-04T15:39:01;10.30;90.40
51661;DHT22;37741;49.748;8.490;2024-02-04T15:41:27;10.30;90.40
51661;DHT22;37741;49.748;8.490;2024-02-04T15:43:54;10.30;90.40
51661;DHT22;37741;49.748;8.490;2024-02-04T15:46:20;10.30;90.50
51661;DHT22;37741;49.748;8.490;2024-02-04T15:48:46;10.30;90.50
51661;DHT22;37741;49.748;8.490;2024-02-04T15:51:13;10.30;90.40
51661;DHT22;37741;49.748;8.490;2024-02-04T15:53:39;10.30;90.40
51661;DHT22;37741;49.748;8.490;2024-02-04T15:56:07;10.30;90.40
51661;DHT22;37741;49.748;8.490;2024-02-04T15:58:38;10.30;90.40
51661;DHT22;37741;49.748;8.490;2024-02-04T16:01:10;10.30;90.50